sensor_id;sensor_type;location;lat;lon;timestamp;P1;durP1;ratioP1;P2;durP2;ratioP2
54360;SDS011;40258;53.936;27.540;2022-08-05T00:01:32;16.02;;;13.20;;
54360;SDS011;40258;53.936;27.540;2022-08-05T00:04:01;17.05;;;13.68;;
54360;SDS011;40258;53.936;27.540;2022-08-05T00:06:30;15.80;;;14.00;;
54360;SDS011;40258;53.936;27.540;2022-08-05T00:09:00;18.02;;;14.48;;
54360;SDS011;40258;53.936;27.540;2022-08-05T00:11:29;15.88;;;13.10;;
54360;SDS011;40258;53.936;27.540;2022-08-05T00:13:58;16.00;;;13.85;;
54360;SDS011;40258;53.936;27.540;2022-08-05T00:16:27;15.55;;;13.70;;
54360;SDS011;40258;53.936;27.540;2022-08-05T00:18:56;16.55;;;14.70;;
54360;SDS011;40258;53.936;27.540;2022-08-05T00:21:25;18.05;;;14.07;;
54360;SDS011;40258;53.936;27.540;2022-08-05T00:23:53;19.58;;;14.05;;
54360;SDS011;40258;53.936;27.540;2022-08-05T00:26:23;20.50;;;14.30;;
54360;SDS011;40258;53.936;27.540;2022-08-05T00:28:52;19.58;;;14.68;;
54360;SDS011;40258;53.936;27.540;2022-08-05T00:31:21;18.13;;;14.10;;
54360;SDS011;40258;53.936;27.540;2022-08-05T00:33:49;21.08;;;14.85;;
54360;SDS011;40258;53.936;27.540;2022-08-05T00:36:17;18.17;;;14.70;;
54360;SDS011;40258;53.936;27.540;2022-08-05T00:38:47;17.38;;;14.07;;
54360;SDS011;40258;53.936;27.540;2022-08-05T00:41:26;20.50;;;14.40;;
54360;SDS011;40258;53.936;27.540;2022-08-05T00:43:56;17.40;;;13.85;;
54360;SDS011;40258;53.936;27.540;2022-08-05T00:46:24;17.25;;;14.75;;
54360;SDS011;40258;53.936;27.540;2022-08-05T00:48:53;19.45;;;15.27;;
54360;SDS011;40258;53.936;27.540;2022-08-05T00:51:21;16.65;;;14.93;;
54360;SDS011;40258;53.936;27.540;2022-08-05T00:53:50;18.85;;;15.75;;
54360;SDS011;40258;53.936;27.540;2022-08-05T00:56:18;17.30;;;14.10;;
54360;SDS011;40258;53.936;27.540;2022-08-05T00:58:48;16.70;;;14.85;;
54360;SDS011;40258;53.936;27.540;2022-08-05T01:01:17;16.67;;;14.05;;
54360;SDS011;40258;53.936;27.540;2022-08-05T01:03:46;20.58;;;15.10;;
54360;SDS011;40258;53.936;27.540;2022-08-05T01:06:14;18.00;;;14.35;;
54360;SDS011;40258;53.936;27.540;2022-08-05T01:08:42;17.63;;;14.95;;
54360;SDS011;40258;53.936;27.540;2022-08-05T01:11:11;17.60;;;15.25;;
54360;SDS011;40258;53.936;27.540;2022-08-05T01:13:47;18.58;;;15.25;;
54360;SDS011;40258;53.936;27.540;2022-08-05T01:16:30;21.10;;;15.07;;
54360;SDS011;40258;53.936;27.540;2022-08-05T01:19:07;18.90;;;14.90;;
54360;SDS011;40258;53.936;27.540;2022-08-05T01:21:51;21.90;;;15.48;;
54360;SDS011;40258;53.936;27.540;2022-08-05T01:24:46;19.25;;;15.50;;
54360;SDS011;40258;53.936;27.540;2022-08-05T01:27:46;19.02;;;15.73;;
54360;SDS011;40258;53.936;27.540;2022-08-05T01:30:37;23.48;;;15.85;;
54360;SDS011;40258;53.936;27.540;2022-08-05T01:33:14;19.52;;;16.90;;
54360;SDS011;40258;53.936;27.540;2022-08-05T01:35:45;19.13;;;16.25;;
54360;SDS011;40258;53.936;27.540;2022-08-05T01:38:16;17.45;;;15.48;;
54360;SDS011;40258;53.936;27.540;2022-08-05T01:40:47;20.25;;;15.65;;
54360;SDS011;40258;53.936;27.540;2022-08-05T01:43:18;23.65;;;15.27;;
54360;SDS011;40258;53.936;27.540;2022-08-05T01:45:48;21.77;;;16.15;;
54360;SDS011;40258;53.936;27.540;2022-08-05T01:48:18;22.52;;;16.70;;
54360;SDS011;40258;53.936;27.540;2022-08-05T01:50:49;18.70;;;16.13;;
54360;SDS011;40258;53.936;27.540;2022-08-05T01:53:18;19.98;;;15.90;;
54360;SDS011;40258;53.936;27.540;2022-08-05T01:55:49;20.58;;;16.25;;
54360;SDS011;40258;53.936;27.540;2022-08-05T01:58:20;16.27;;;14.23;;
54360;SDS011;40258;53.936;27.540;2022-08-05T02:00:52;20.38;;;16.35;;
54360;SDS011;40258;53.936;27.540;2022-08-05T02:03:24;21.67;;;17.08;;
54360;SDS011;40258;53.936;27.540;2022-08-05T02:05:58;20.20;;;17.75;;
54360;SDS011;40258;53.936;27.540;2022-08-05T02:08:28;18.58;;;16.58;;
54360;SDS011;40258;53.936;27.540;2022-08-05T02:10:58;20.67;;;17.35;;
54360;SDS011;40258;53.936;27.540;2022-08-05T02:13:34;22.45;;;15.82;;
54360;SDS011;40258;53.936;27.540;2022-08-05T02:16:11;18.88;;;16.27;;
54360;SDS011;40258;53.936;27.540;2022-08-05T02:18:47;20.40;;;16.27;;
54360;SDS011;40258;53.936;27.540;2022-08-05T02:21:21;19.23;;;16.65;;
54360;SDS011;40258;53.936;27.540;2022-08-05T02:23:58;17.67;;;15.77;;
54360;SDS011;40258;53.936;27.540;2022-08-05T02:26:34;17.20;;;15.00;;
54360;SDS011;40258;53.936;27.540;2022-08-05T02:29:10;19.73;;;15.60;;
54360;SDS011;40258;53.936;27.540;2022-08-05T02:31:42;20.33;;;16.60;;
54360;SDS011;40258;53.936;27.540;2022-08-05T02:34:13;19.83;;;16.88;;
54360;SDS011;40258;53.936;27.540;2022-08-05T02:36:44;20.85;;;15.77;;
54360;SDS011;40258;53.936;27.540;2022-08-05T02:39:18;20.05;;;16.35;;
54360;SDS011;40258;53.936;27.540;2022-08-05T02:41:50;20.38;;;16.10;;
54360;SDS011;40258;53.936;27.540;2022-08-05T02:44:23;23.90;;;17.48;;
54360;SDS011;40258;53.936;27.540;2022-08-05T02:46:53;21.27;;;17.27;;
54360;SDS011;40258;53.936;27.540;2022-08-05T02:49:23;21.58;;;16.67;;
54360;SDS011;40258;53.936;27.540;2022-08-05T02:51:54;22.08;;;18.73;;
54360;SDS011;40258;53.936;27.540;2022-08-05T02:54:23;27.83;;;22.33;;
54360;SDS011;40258;53.936;27.540;2022-08-05T02:56:54;33.10;;;28.58;;
54360;SDS011;40258;53.936;27.540;2022-08-05T02:59:25;36.75;;;30.73;;
54360;SDS011;40258;53.936;27.540;2022-08-05T03:01:56;34.05;;;29.50;;
54360;SDS011;40258;53.936;27.540;2022-08-05T03:04:26;35.88;;;27.30;;
54360;SDS011;40258;53.936;27.540;2022-08-05T03:06:55;28.38;;;25.27;;
54360;SDS011;40258;53.936;27.540;2022-08-05T03:09:25;30.30;;;25.38;;
54360;SDS011;40258;53.936;27.540;2022-08-05T03:11:53;28.55;;;23.55;;
54360;SDS011;40258;53.936;27.540;2022-08-05T03:14:22;26.17;;;22.17;;
54360;SDS011;40258;53.936;27.540;2022-08-05T03:16:53;25.77;;;21.10;;
54360;SDS011;40258;53.936;27.540;2022-08-05T03:19:21;23.15;;;20.25;;
54360;SDS011;40258;53.936;27.540;2022-08-05T03:21:50;22.00;;;18.38;;
54360;SDS011;40258;53.936;27.540;2022-08-05T03:24:18;20.77;;;17.45;;
54360;SDS011;40258;53.936;27.540;2022-08-05T03:26:48;20.30;;;16.75;;
54360;SDS011;40258;53.936;27.540;2022-08-05T03:29:17;20.13;;;17.40;;
54360;SDS011;40258;53.936;27.540;2022-08-05T03:31:45;21.02;;;16.52;;
54360;SDS011;40258;53.936;27.540;2022-08-05T03:34:15;18.95;;;16.88;;
54360;SDS011;40258;53.936;27.540;2022-08-05T03:36:44;22.08;;;18.33;;
54360;SDS011;40258;53.936;27.540;2022-08-05T03:39:13;18.67;;;16.02;;
54360;SDS011;40258;53.936;27.540;2022-08-05T03:41:42;20.77;;;16.85;;
54360;SDS011;40258;53.936;27.540;2022-08-05T03:44:11;17.88;;;15.68;;
54360;SDS011;40258;53.936;27.540;2022-08-05T03:46:39;18.23;;;15.82;;
54360;SDS011;40258;53.936;27.540;2022-08-05T03:49:08;19.27;;;16.42;;
54360;SDS011;40258;53.936;27.540;2022-08-05T03:51:38;19.95;;;14.95;;
54360;SDS011;40258;53.936;27.540;2022-08-05T03:54:19;17.52;;;14.98;;
54360;SDS011;40258;53.936;27.540;2022-08-05T03:56:57;17.35;;;14.50;;
54360;SDS011;40258;53.936;27.540;2022-08-05T03:59:30;16.88;;;14.50;;
54360;SDS011;40258;53.936;27.540;2022-08-05T04:02:04;17.13;;;15.30;;
54360;SDS011;40258;53.936;27.540;2022-08-05T04:04:33;16.05;;;14.15;;
54360;SDS011;40258;53.936;27.540;2022-08-05T04:07:04;16.33;;;14.63;;
54360;SDS011;40258;53.936;27.540;2022-08-05T04:09:34;18.85;;;13.77;;
54360;SDS011;40258;53.936;27.540;2022-08-05T04:12:04;17.00;;;13.55;;
54360;SDS011;40258;53.936;27.540;2022-08-05T04:14:34;16.80;;;14.27;;
54360;SDS011;40258;53.936;27.540;2022-08-05T04:17:03;18.88;;;14.73;;
54360;SDS011;40258;53.936;27.540;2022-08-05T04:19:40;16.13;;;13.63;;
54360;SDS011;40258;53.936;27.540;2022-08-05T04:22:11;15.82;;;14.20;;
54360;SDS011;40258;53.936;27.540;2022-08-05T04:24:41;15.85;;;13.23;;
54360;SDS011;40258;53.936;27.540;2022-08-05T04:27:11;15.18;;;13.27;;
54360;SDS011;40258;53.936;27.540;2022-08-05T04:29:40;15.07;;;12.90;;
54360;SDS011;40258;53.936;27.540;2022-08-05T04:32:09;15.65;;;12.52;;
54360;SDS011;40258;53.936;27.540;2022-08-05T04:34:39;16.92;;;13.25;;
54360;SDS011;40258;53.936;27.540;2022-08-05T04:37:08;14.38;;;12.90;;
54360;SDS011;40258;53.936;27.540;2022-08-05T04:39:38;14.98;;;13.13;;
54360;SDS011;40258;53.936;27.540;2022-08-05T04:42:07;13.57;;;12.18;;
54360;SDS011;40258;53.936;27.540;2022-08-05T04:44:36;15.20;;;13.02;;
54360;SDS011;40258;53.936;27.540;2022-08-05T04:47:04;14.95;;;12.93;;
54360;SDS011;40258;53.936;27.540;2022-08-05T04:49:33;14.80;;;12.93;;
54360;SDS011;40258;53.936;27.540;2022-08-05T04:52:01;13.95;;;11.65;;
54360;SDS011;40258;53.936;27.540;2022-08-05T04:54:31;13.77;;;12.10;;
54360;SDS011;40258;53.936;27.540;2022-08-05T04:57:02;14.60;;;12.13;;
54360;SDS011;40258;53.936;27.540;2022-08-05T04:59:31;15.13;;;12.18;;
54360;SDS011;40258;53.936;27.540;2022-08-05T05:02:00;14.70;;;11.98;;
54360;SDS011;40258;53.936;27.540;2022-08-05T05:04:28;14.93;;;11.25;;
54360;SDS011;40258;53.936;27.540;2022-08-05T05:06:57;15.23;;;13.05;;
54360;SDS011;40258;53.936;27.540;2022-08-05T05:09:25;15.35;;;11.68;;
54360;SDS011;40258;53.936;27.540;2022-08-05T05:11:55;17.40;;;13.65;;
54360;SDS011;40258;53.936;27.540;2022-08-05T05:14:24;12.77;;;11.48;;
54360;SDS011;40258;53.936;27.540;2022-08-05T05:16:52;15.90;;;14.18;;
54360;SDS011;40258;53.936;27.540;2022-08-05T05:19:21;14.50;;;12.18;;
54360;SDS011;40258;53.936;27.540;2022-08-05T05:21:49;14.00;;;10.52;;
54360;SDS011;40258;53.936;27.540;2022-08-05T05:24:18;14.50;;;10.57;;
54360;SDS011;40258;53.936;27.540;2022-08-05T05:26:46;13.20;;;10.13;;
54360;SDS011;40258;53.936;27.540;2022-08-05T05:29:17;12.48;;;9.63;;
54360;SDS011;40258;53.936;27.540;2022-08-05T05:31:46;11.35;;;9.23;;
54360;SDS011;40258;53.936;27.540;2022-08-05T05:34:15;12.30;;;9.75;;
54360;SDS011;40258;53.936;27.540;2022-08-05T05:36:43;12.13;;;8.77;;
54360;SDS011;40258;53.936;27.540;2022-08-05T05:39:12;10.13;;;8.55;;
54360;SDS011;40258;53.936;27.540;2022-08-05T05:41:40;9.50;;;8.30;;
54360;SDS011;40258;53.936;27.540;2022-08-05T05:44:09;13.82;;;8.63;;
54360;SDS011;40258;53.936;27.540;2022-08-05T05:46:39;11.10;;;7.35;;
54360;SDS011;40258;53.936;27.540;2022-08-05T05:49:07;11.30;;;7.28;;
54360;SDS011;40258;53.936;27.540;2022-08-05T05:51:36;14.40;;;8.55;;
54360;SDS011;40258;53.936;27.540;2022-08-05T05:54:04;9.38;;;7.75;;
54360;SDS011;40258;53.936;27.540;2022-08-05T05:56:33;9.23;;;7.57;;
54360;SDS011;40258;53.936;27.540;2022-08-05T05:59:02;9.40;;;7.28;;
54360;SDS011;40258;53.936;27.540;2022-08-05T06:01:32;9.68;;;6.75;;
54360;SDS011;40258;53.936;27.540;2022-08-05T06:04:04;8.27;;;6.75;;
54360;SDS011;40258;53.936;27.540;2022-08-05T06:06:33;8.80;;;7.03;;
54360;SDS011;40258;53.936;27.540;2022-08-05T06:09:02;9.43;;;7.80;;
54360;SDS011;40258;53.936;27.540;2022-08-05T06:11:31;8.40;;;6.40;;
54360;SDS011;40258;53.936;27.540;2022-08-05T06:14:00;8.68;;;6.40;;
54360;SDS011;40258;53.936;27.540;2022-08-05T06:16:29;18.55;;;7.10;;
54360;SDS011;40258;53.936;27.540;2022-08-05T06:18:57;13.13;;;6.85;;
54360;SDS011;40258;53.936;27.540;2022-08-05T06:21:28;12.05;;;7.20;;
54360;SDS011;40258;53.936;27.540;2022-08-05T06:23:57;8.70;;;6.75;;
54360;SDS011;40258;53.936;27.540;2022-08-05T06:26:26;10.70;;;7.18;;
54360;SDS011;40258;53.936;27.540;2022-08-05T06:28:54;9.18;;;6.45;;
54360;SDS011;40258;53.936;27.540;2022-08-05T06:31:23;10.18;;;7.20;;
54360;SDS011;40258;53.936;27.540;2022-08-05T06:33:52;9.73;;;6.38;;
54360;SDS011;40258;53.936;27.540;2022-08-05T06:36:21;9.70;;;6.25;;
54360;SDS011;40258;53.936;27.540;2022-08-05T06:38:51;8.05;;;6.32;;
54360;SDS011;40258;53.936;27.540;2022-08-05T06:41:20;10.10;;;5.95;;
54360;SDS011;40258;53.936;27.540;2022-08-05T06:43:48;8.77;;;6.03;;
54360;SDS011;40258;53.936;27.540;2022-08-05T06:46:17;11.40;;;6.63;;
54360;SDS011;40258;53.936;27.540;2022-08-05T06:48:45;9.68;;;5.85;;
54360;SDS011;40258;53.936;27.540;2022-08-05T06:51:14;8.98;;;5.95;;
54360;SDS011;40258;53.936;27.540;2022-08-05T06:53:42;8.60;;;6.63;;
54360;SDS011;40258;53.936;27.540;2022-08-05T06:56:12;8.90;;;5.80;;
54360;SDS011;40258;53.936;27.540;2022-08-05T06:58:41;7.45;;;5.55;;
54360;SDS011;40258;53.936;27.540;2022-08-05T07:01:09;6.90;;;5.38;;
54360;SDS011;40258;53.936;27.540;2022-08-05T07:03:37;7.60;;;5.88;;
54360;SDS011;40258;53.936;27.540;2022-08-05T07:06:06;10.52;;;5.80;;
54360;SDS011;40258;53.936;27.540;2022-08-05T07:08:35;6.88;;;5.80;;
54360;SDS011;40258;53.936;27.540;2022-08-05T07:11:04;9.05;;;5.53;;
54360;SDS011;40258;53.936;27.540;2022-08-05T07:13:34;7.50;;;5.32;;
54360;SDS011;40258;53.936;27.540;2022-08-05T07:16:20;8.48;;;6.43;;
54360;SDS011;40258;53.936;27.540;2022-08-05T07:19:06;10.27;;;6.65;;
54360;SDS011;40258;53.936;27.540;2022-08-05T07:21:34;12.05;;;6.00;;
54360;SDS011;40258;53.936;27.540;2022-08-05T07:24:03;13.40;;;6.68;;
54360;SDS011;40258;53.936;27.540;2022-08-05T07:26:33;9.38;;;6.38;;
54360;SDS011;40258;53.936;27.540;2022-08-05T07:29:03;7.68;;;5.63;;
54360;SDS011;40258;53.936;27.540;2022-08-05T07:31:32;9.20;;;6.13;;
54360;SDS011;40258;53.936;27.540;2022-08-05T07:34:01;11.32;;;6.32;;
54360;SDS011;40258;53.936;27.540;2022-08-05T07:36:30;11.95;;;7.28;;
54360;SDS011;40258;53.936;27.540;2022-08-05T07:38:59;8.43;;;6.70;;
54360;SDS011;40258;53.936;27.540;2022-08-05T07:41:28;10.88;;;6.07;;
54360;SDS011;40258;53.936;27.540;2022-08-05T07:43:57;9.60;;;6.32;;
54360;SDS011;40258;53.936;27.540;2022-08-05T07:46:29;10.50;;;7.22;;
54360;SDS011;40258;53.936;27.540;2022-08-05T07:48:58;11.85;;;7.20;;
54360;SDS011;40258;53.936;27.540;2022-08-05T07:51:29;11.32;;;7.20;;
54360;SDS011;40258;53.936;27.540;2022-08-05T07:54:03;10.65;;;7.30;;
54360;SDS011;40258;53.936;27.540;2022-08-05T07:56:32;8.60;;;6.90;;
54360;SDS011;40258;53.936;27.540;2022-08-05T07:59:00;8.18;;;6.97;;
54360;SDS011;40258;53.936;27.540;2022-08-05T08:01:30;9.95;;;7.82;;
54360;SDS011;40258;53.936;27.540;2022-08-05T08:03:59;13.02;;;7.75;;
54360;SDS011;40258;53.936;27.540;2022-08-05T08:06:28;9.23;;;7.45;;
54360;SDS011;40258;53.936;27.540;2022-08-05T08:08:57;11.10;;;7.00;;
54360;SDS011;40258;53.936;27.540;2022-08-05T08:11:26;11.05;;;7.22;;
54360;SDS011;40258;53.936;27.540;2022-08-05T08:13:55;9.77;;;7.32;;
54360;SDS011;40258;53.936;27.540;2022-08-05T08:16:23;9.85;;;7.53;;
54360;SDS011;40258;53.936;27.540;2022-08-05T08:18:54;11.02;;;7.15;;
54360;SDS011;40258;53.936;27.540;2022-08-05T08:21:23;8.98;;;7.32;;
54360;SDS011;40258;53.936;27.540;2022-08-05T08:23:51;12.52;;;7.65;;
54360;SDS011;40258;53.936;27.540;2022-08-05T08:26:20;9.65;;;6.32;;
54360;SDS011;40258;53.936;27.540;2022-08-05T08:28:49;13.27;;;6.93;;
54360;SDS011;40258;53.936;27.540;2022-08-05T08:31:17;9.63;;;7.72;;
54360;SDS011;40258;53.936;27.540;2022-08-05T08:33:46;12.23;;;7.80;;
54360;SDS011;40258;53.936;27.540;2022-08-05T08:36:16;9.93;;;7.05;;
54360;SDS011;40258;53.936;27.540;2022-08-05T08:38:45;8.80;;;7.25;;
54360;SDS011;40258;53.936;27.540;2022-08-05T08:41:13;8.95;;;7.03;;
54360;SDS011;40258;53.936;27.540;2022-08-05T08:43:42;8.55;;;7.00;;
54360;SDS011;40258;53.936;27.540;2022-08-05T08:46:13;9.50;;;7.45;;
54360;SDS011;40258;53.936;27.540;2022-08-05T08:48:43;10.30;;;6.65;;
54360;SDS011;40258;53.936;27.540;2022-08-05T08:51:17;11.80;;;6.63;;
54360;SDS011;40258;53.936;27.540;2022-08-05T08:53:49;9.88;;;7.25;;
54360;SDS011;40258;53.936;27.540;2022-08-05T08:56:18;11.15;;;7.82;;
54360;SDS011;40258;53.936;27.540;2022-08-05T08:58:48;8.27;;;6.35;;
54360;SDS011;40258;53.936;27.540;2022-08-05T09:01:17;7.82;;;7.03;;
54360;SDS011;40258;53.936;27.540;2022-08-05T09:03:47;9.30;;;6.68;;
54360;SDS011;40258;53.936;27.540;2022-08-05T09:06:19;9.40;;;6.88;;
54360;SDS011;40258;53.936;27.540;2022-08-05T09:08:48;9.07;;;6.80;;
54360;SDS011;40258;53.936;27.540;2022-08-05T09:11:17;8.98;;;6.65;;
54360;SDS011;40258;53.936;27.540;2022-08-05T09:13:45;8.68;;;6.80;;
54360;SDS011;40258;53.936;27.540;2022-08-05T09:16:15;8.80;;;6.57;;
54360;SDS011;40258;53.936;27.540;2022-08-05T09:18:43;9.05;;;6.80;;
54360;SDS011;40258;53.936;27.540;2022-08-05T09:21:13;7.82;;;6.40;;
54360;SDS011;40258;53.936;27.540;2022-08-05T09:23:44;9.57;;;7.72;;
54360;SDS011;40258;53.936;27.540;2022-08-05T09:26:13;10.07;;;7.95;;
54360;SDS011;40258;53.936;27.540;2022-08-05T09:28:42;9.45;;;7.13;;
54360;SDS011;40258;53.936;27.540;2022-08-05T09:31:14;9.07;;;6.80;;
54360;SDS011;40258;53.936;27.540;2022-08-05T09:33:46;13.63;;;7.05;;
54360;SDS011;40258;53.936;27.540;2022-08-05T09:36:16;11.13;;;7.07;;
54360;SDS011;40258;53.936;27.540;2022-08-05T09:38:57;9.95;;;7.32;;
54360;SDS011;40258;53.936;27.540;2022-08-05T09:41:27;10.20;;;8.15;;
54360;SDS011;40258;53.936;27.540;2022-08-05T09:43:55;11.38;;;7.53;;
54360;SDS011;40258;53.936;27.540;2022-08-05T09:46:26;8.80;;;7.38;;
54360;SDS011;40258;53.936;27.540;2022-08-05T09:48:56;9.00;;;7.28;;
54360;SDS011;40258;53.936;27.540;2022-08-05T09:51:32;7.90;;;6.93;;
54360;SDS011;40258;53.936;27.540;2022-08-05T09:54:04;9.05;;;6.95;;
54360;SDS011;40258;53.936;27.540;2022-08-05T09:56:36;8.27;;;7.22;;
54360;SDS011;40258;53.936;27.540;2022-08-05T09:59:06;9.07;;;7.05;;
54360;SDS011;40258;53.936;27.540;2022-08-05T10:01:38;13.02;;;6.78;;
54360;SDS011;40258;53.936;27.540;2022-08-05T10:04:13;9.77;;;6.82;;
54360;SDS011;40258;53.936;27.540;2022-08-05T10:06:42;10.38;;;6.30;;
54360;SDS011;40258;53.936;27.540;2022-08-05T10:09:23;10.25;;;6.70;;
54360;SDS011;40258;53.936;27.540;2022-08-05T10:11:51;10.55;;;8.38;;
54360;SDS011;40258;53.936;27.540;2022-08-05T10:14:21;8.32;;;6.57;;
54360;SDS011;40258;53.936;27.540;2022-08-05T10:16:52;9.55;;;6.53;;
54360;SDS011;40258;53.936;27.540;2022-08-05T10:19:22;10.02;;;6.88;;
54360;SDS011;40258;53.936;27.540;2022-08-05T10:21:52;10.00;;;6.55;;
54360;SDS011;40258;53.936;27.540;2022-08-05T10:24:21;8.15;;;7.10;;
54360;SDS011;40258;53.936;27.540;2022-08-05T10:26:51;7.68;;;6.55;;
54360;SDS011;40258;53.936;27.540;2022-08-05T10:29:21;14.52;;;7.53;;
54360;SDS011;40258;53.936;27.540;2022-08-05T10:31:51;9.57;;;6.65;;
54360;SDS011;40258;53.936;27.540;2022-08-05T10:34:20;9.32;;;6.00;;
54360;SDS011;40258;53.936;27.540;2022-08-05T10:36:49;9.95;;;6.60;;
54360;SDS011;40258;53.936;27.540;2022-08-05T10:39:19;8.38;;;6.15;;
54360;SDS011;40258;53.936;27.540;2022-08-05T10:41:58;8.57;;;6.75;;
54360;SDS011;40258;53.936;27.540;2022-08-05T10:44:34;13.13;;;6.75;;
54360;SDS011;40258;53.936;27.540;2022-08-05T10:47:08;10.98;;;6.65;;
54360;SDS011;40258;53.936;27.540;2022-08-05T10:52:38;9.45;;;6.00;;
54360;SDS011;40258;53.936;27.540;2022-08-05T10:55:11;9.13;;;7.30;;
54360;SDS011;40258;53.936;27.540;2022-08-05T10:57:41;9.98;;;7.30;;
54360;SDS011;40258;53.936;27.540;2022-08-05T11:00:11;8.38;;;7.28;;
54360;SDS011;40258;53.936;27.540;2022-08-05T11:05:37;9.50;;;5.85;;
54360;SDS011;40258;53.936;27.540;2022-08-05T11:08:06;7.93;;;5.70;;
54360;SDS011;40258;53.936;27.540;2022-08-05T11:10:38;9.65;;;5.82;;
54360;SDS011;40258;53.936;27.540;2022-08-05T11:13:08;10.07;;;6.20;;
54360;SDS011;40258;53.936;27.540;2022-08-05T11:15:36;8.65;;;5.57;;
54360;SDS011;40258;53.936;27.540;2022-08-05T11:18:07;11.40;;;6.35;;
54360;SDS011;40258;53.936;27.540;2022-08-05T11:20:52;8.23;;;6.75;;
54360;SDS011;40258;53.936;27.540;2022-08-05T11:23:25;7.28;;;5.88;;
54360;SDS011;40258;53.936;27.540;2022-08-05T11:26:01;8.98;;;6.57;;
54360;SDS011;40258;53.936;27.540;2022-08-05T11:31:21;8.00;;;6.40;;
54360;SDS011;40258;53.936;27.540;2022-08-05T11:33:59;8.20;;;6.20;;
54360;SDS011;40258;53.936;27.540;2022-08-05T11:36:49;8.73;;;5.65;;
54360;SDS011;40258;53.936;27.540;2022-08-05T11:42:22;10.73;;;6.78;;
54360;SDS011;40258;53.936;27.540;2022-08-05T11:44:52;9.03;;;6.27;;
54360;SDS011;40258;53.936;27.540;2022-08-05T11:47:32;8.90;;;6.38;;
54360;SDS011;40258;53.936;27.540;2022-08-05T11:50:04;10.50;;;6.70;;
54360;SDS011;40258;53.936;27.540;2022-08-05T11:52:33;8.85;;;6.18;;
54360;SDS011;40258;53.936;27.540;2022-08-05T11:55:03;9.18;;;6.32;;
54360;SDS011;40258;53.936;27.540;2022-08-05T11:57:33;9.55;;;6.20;;
54360;SDS011;40258;53.936;27.540;2022-08-05T12:00:02;10.95;;;6.22;;
54360;SDS011;40258;53.936;27.540;2022-08-05T12:02:37;10.73;;;6.20;;
54360;SDS011;40258;53.936;27.540;2022-08-05T12:05:06;9.82;;;6.32;;
54360;SDS011;40258;53.936;27.540;2022-08-05T12:07:36;11.20;;;6.28;;
54360;SDS011;40258;53.936;27.540;2022-08-05T12:10:04;8.43;;;6.25;;
54360;SDS011;40258;53.936;27.540;2022-08-05T12:12:40;7.55;;;6.47;;
54360;SDS011;40258;53.936;27.540;2022-08-05T12:15:17;7.72;;;6.55;;
54360;SDS011;40258;53.936;27.540;2022-08-05T12:17:46;8.77;;;6.43;;
54360;SDS011;40258;53.936;27.540;2022-08-05T12:20:15;8.55;;;6.07;;
54360;SDS011;40258;53.936;27.540;2022-08-05T12:22:44;11.43;;;6.53;;
54360;SDS011;40258;53.936;27.540;2022-08-05T12:25:12;9.07;;;6.55;;
54360;SDS011;40258;53.936;27.540;2022-08-05T12:27:45;7.93;;;6.05;;
54360;SDS011;40258;53.936;27.540;2022-08-05T12:30:14;9.10;;;6.20;;
54360;SDS011;40258;53.936;27.540;2022-08-05T12:32:44;8.98;;;6.50;;
54360;SDS011;40258;53.936;27.540;2022-08-05T12:35:16;8.23;;;5.82;;
54360;SDS011;40258;53.936;27.540;2022-08-05T12:37:44;7.50;;;5.82;;
54360;SDS011;40258;53.936;27.540;2022-08-05T12:40:14;8.68;;;5.43;;
54360;SDS011;40258;53.936;27.540;2022-08-05T12:42:44;7.40;;;5.47;;
54360;SDS011;40258;53.936;27.540;2022-08-05T12:45:13;7.70;;;6.07;;
54360;SDS011;40258;53.936;27.540;2022-08-05T12:47:43;7.55;;;5.20;;
54360;SDS011;40258;53.936;27.540;2022-08-05T12:50:12;8.20;;;5.75;;
54360;SDS011;40258;53.936;27.540;2022-08-05T12:52:52;7.43;;;5.93;;
54360;SDS011;40258;53.936;27.540;2022-08-05T12:55:25;8.90;;;6.07;;
54360;SDS011;40258;53.936;27.540;2022-08-05T12:57:57;7.78;;;5.45;;
54360;SDS011;40258;53.936;27.540;2022-08-05T13:00:27;10.65;;;5.63;;
54360;SDS011;40258;53.936;27.540;2022-08-05T13:02:56;9.10;;;5.70;;
54360;SDS011;40258;53.936;27.540;2022-08-05T13:05:25;8.30;;;5.68;;
54360;SDS011;40258;53.936;27.540;2022-08-05T13:07:55;8.93;;;6.47;;
54360;SDS011;40258;53.936;27.540;2022-08-05T13:10:24;12.18;;;6.35;;
54360;SDS011;40258;53.936;27.540;2022-08-05T13:12:54;9.32;;;6.35;;
54360;SDS011;40258;53.936;27.540;2022-08-05T13:15:27;9.13;;;6.35;;
54360;SDS011;40258;53.936;27.540;2022-08-05T13:17:57;8.15;;;6.10;;
54360;SDS011;40258;53.936;27.540;2022-08-05T13:20:32;7.43;;;6.38;;
54360;SDS011;40258;53.936;27.540;2022-08-05T13:23:01;8.02;;;5.88;;
54360;SDS011;40258;53.936;27.540;2022-08-05T13:25:30;9.93;;;6.72;;
54360;SDS011;40258;53.936;27.540;2022-08-05T13:28:02;8.52;;;6.55;;
54360;SDS011;40258;53.936;27.540;2022-08-05T13:30:31;8.50;;;6.50;;
54360;SDS011;40258;53.936;27.540;2022-08-05T13:33:00;8.80;;;6.55;;
54360;SDS011;40258;53.936;27.540;2022-08-05T13:35:29;9.25;;;7.00;;
54360;SDS011;40258;53.936;27.540;2022-08-05T13:37:57;8.40;;;6.60;;
54360;SDS011;40258;53.936;27.540;2022-08-05T13:40:26;9.63;;;6.40;;
54360;SDS011;40258;53.936;27.540;2022-08-05T13:42:54;8.73;;;5.63;;
54360;SDS011;40258;53.936;27.540;2022-08-05T13:45:24;10.85;;;6.55;;
54360;SDS011;40258;53.936;27.540;2022-08-05T13:47:53;8.43;;;6.18;;
54360;SDS011;40258;53.936;27.540;2022-08-05T13:50:21;9.80;;;6.28;;
54360;SDS011;40258;53.936;27.540;2022-08-05T13:52:50;7.68;;;5.78;;
54360;SDS011;40258;53.936;27.540;2022-08-05T13:55:19;10.05;;;6.30;;
54360;SDS011;40258;53.936;27.540;2022-08-05T13:57:48;7.97;;;6.15;;
54360;SDS011;40258;53.936;27.540;2022-08-05T14:00:16;9.30;;;6.25;;
54360;SDS011;40258;53.936;27.540;2022-08-05T14:02:47;10.60;;;6.35;;
54360;SDS011;40258;53.936;27.540;2022-08-05T14:05:16;10.68;;;5.70;;
54360;SDS011;40258;53.936;27.540;2022-08-05T14:07:44;10.25;;;6.70;;
54360;SDS011;40258;53.936;27.540;2022-08-05T14:10:13;6.93;;;5.65;;
54360;SDS011;40258;53.936;27.540;2022-08-05T14:12:45;7.47;;;6.15;;
54360;SDS011;40258;53.936;27.540;2022-08-05T14:15:15;9.25;;;6.15;;
54360;SDS011;40258;53.936;27.540;2022-08-05T14:17:44;8.73;;;6.47;;
54360;SDS011;40258;53.936;27.540;2022-08-05T14:20:14;8.80;;;6.63;;
54360;SDS011;40258;53.936;27.540;2022-08-05T14:22:42;9.25;;;7.07;;
54360;SDS011;40258;53.936;27.540;2022-08-05T14:25:10;10.43;;;6.82;;
54360;SDS011;40258;53.936;27.540;2022-08-05T14:27:39;8.15;;;6.88;;
54360;SDS011;40258;53.936;27.540;2022-08-05T14:30:08;9.45;;;6.50;;
54360;SDS011;40258;53.936;27.540;2022-08-05T14:32:38;11.65;;;6.88;;
54360;SDS011;40258;53.936;27.540;2022-08-05T14:35:07;10.15;;;6.63;;
54360;SDS011;40258;53.936;27.540;2022-08-05T14:37:38;9.50;;;6.47;;
54360;SDS011;40258;53.936;27.540;2022-08-05T14:40:08;8.15;;;6.55;;
54360;SDS011;40258;53.936;27.540;2022-08-05T14:42:37;8.20;;;6.40;;
54360;SDS011;40258;53.936;27.540;2022-08-05T14:45:07;10.38;;;6.85;;
54360;SDS011;40258;53.936;27.540;2022-08-05T14:47:37;10.77;;;6.05;;
54360;SDS011;40258;53.936;27.540;2022-08-05T14:50:06;6.90;;;5.95;;
54360;SDS011;40258;53.936;27.540;2022-08-05T14:52:35;8.88;;;6.28;;
54360;SDS011;40258;53.936;27.540;2022-08-05T14:55:05;7.30;;;5.45;;